createdAt,value
2019-06-27T00:00:51.967Z,1021.6
2019-06-27T00:01:53.609Z,1021.6
2019-06-27T00:02:55.029Z,1021.6
2019-06-27T00:03:56.523Z,1021.6
2019-06-27T00:04:57.942Z,1021.7
2019-06-27T00:05:59.766Z,1021.7
2019-06-27T00:07:01.221Z,1021.7
2019-06-27T00:08:02.644Z,1021.6
2019-06-27T00:09:04.053Z,1021.7
2019-06-27T00:10:05.560Z,1021.7
2019-06-27T00:11:07.001Z,1021.6
2019-06-27T00:12:08.690Z,1021.6
2019-06-27T00:13:10.101Z,1021.7
2019-06-27T00:14:11.724Z,1021.7
2019-06-27T00:15:13.133Z,1021.7
2019-06-27T00:16:14.551Z,1021.7
2019-06-27T00:17:16.035Z,1021.7
2019-06-27T00:18:17.435Z,1021.7
2019-06-27T00:19:18.837Z,1021.7
2019-06-27T00:20:20.358Z,1021.7
2019-06-27T00:21:21.767Z,1021.7
2019-06-27T00:22:23.247Z,1021.8
2019-06-27T00:23:24.697Z,1021.8
2019-06-27T00:24:26.314Z,1021.8
2019-06-27T00:25:27.742Z,1021.7
2019-06-27T00:26:29.212Z,1021.8
2019-06-27T00:27:30.621Z,1021.8
2019-06-27T00:28:32.098Z,1021.8
2019-06-27T00:29:33.522Z,1021.8
2019-06-27T00:30:35.164Z,1021.8
2019-06-27T00:31:36.591Z,1021.8
2019-06-27T00:32:38.072Z,1021.9
2019-06-27T00:33:39.508Z,1021.9
2019-06-27T00:34:41.137Z,1021.8
2019-06-27T00:35:42.542Z,1021.9
2019-06-27T00:36:44.013Z,1021.9
2019-06-27T00:37:45.420Z,1021.9
2019-06-27T00:38:46.897Z,1021.9
2019-06-27T00:39:48.308Z,1021.9
2019-06-27T00:40:49.778Z,1021.9
2019-06-27T00:41:51.178Z,1021.9
2019-06-27T00:42:52.665Z,1021.9
2019-06-27T00:43:54.060Z,1022.0
2019-06-27T00:44:55.547Z,1021.9
2019-06-27T00:45:56.956Z,1022.0
2019-06-27T00:46:58.352Z,1022.0
2019-06-27T00:47:59.748Z,1021.9
2019-06-27T00:49:01.154Z,1021.9
2019-06-27T00:50:02.796Z,1021.9
2019-06-27T00:51:04.161Z,1021.9
2019-06-27T00:52:05.560Z,1021.9
2019-06-27T00:53:07.065Z,1021.9
2019-06-27T00:54:08.472Z,1021.9
2019-06-27T00:55:09.870Z,1021.9
2019-06-27T00:56:11.385Z,1021.9
2019-06-27T00:57:14.387Z,1021.9
2019-06-27T00:58:14.155Z,1021.9
2019-06-27T00:59:15.709Z,1021.9
2019-06-27T01:00:17.124Z,1021.9
2019-06-27T01:01:18.517Z,1021.9
2019-06-27T01:02:20.025Z,1021.9
2019-06-27T01:03:21.491Z,1022.0
2019-06-27T01:04:22.874Z,1022.0
2019-06-27T01:05:33.189Z,1022.0
2019-06-27T01:06:34.613Z,1022.0
2019-06-27T01:07:36.150Z,1021.9
2019-06-27T01:08:37.717Z,1022.0
2019-06-27T01:09:39.141Z,1021.9
2019-06-27T01:10:40.557Z,1022.0
2019-06-27T01:11:43.025Z,1022.0
2019-06-27T01:12:44.509Z,1021.9
2019-06-27T01:13:45.956Z,1021.9
2019-06-27T01:14:48.579Z,1021.9
2019-06-27T01:15:49.980Z,1021.9
2019-06-27T01:16:51.381Z,1021.9
2019-06-27T01:17:52.895Z,1021.9
2019-06-27T01:18:54.301Z,1021.9
2019-06-27T01:19:55.777Z,1021.9
2019-06-27T01:20:57.184Z,1021.9
2019-06-27T01:21:58.681Z,1021.9
2019-06-27T01:23:00.133Z,1021.9
2019-06-27T01:24:01.543Z,1021.9
2019-06-27T01:25:02.943Z,1021.8
2019-06-27T01:26:04.425Z,1021.8
2019-06-27T01:27:05.828Z,1021.8
2019-06-27T01:28:07.303Z,1021.9
2019-06-27T01:29:08.708Z,1021.9
2019-06-27T01:30:10.185Z,1021.9
2019-06-27T01:31:11.585Z,1021.9
2019-06-27T01:32:12.987Z,1021.8
2019-06-27T01:33:14.523Z,1021.9
2019-06-27T01:34:15.909Z,1021.9
2019-06-27T01:35:17.315Z,1021.9
2019-06-27T01:36:18.829Z,1021.9
2019-06-27T01:37:20.232Z,1021.9
2019-06-27T01:38:21.666Z,1021.9
2019-06-27T01:39:23.073Z,1021.9
2019-06-27T01:40:24.468Z,1021.9
2019-06-27T01:41:25.867Z,1021.9
2019-06-27T01:42:27.277Z,1021.9
2019-06-27T01:43:28.684Z,1021.9
2019-06-27T01:44:30.147Z,1021.9
2019-06-27T01:45:31.551Z,1021.9
2019-06-27T01:46:33.022Z,1021.8
2019-06-27T01:47:34.437Z,1021.8
2019-06-27T01:48:35.884Z,1021.8
2019-06-27T01:49:37.349Z,1021.8
2019-06-27T01:50:38.751Z,1021.9
2019-06-27T01:51:40.151Z,1021.9
2019-06-27T01:52:41.669Z,1021.8
2019-06-27T01:53:43.070Z,1021.8
2019-06-27T01:54:44.552Z,1021.8
2019-06-27T01:55:45.953Z,1021.8
2019-06-27T01:56:47.444Z,1021.8
2019-06-27T01:57:48.834Z,1021.8
2019-06-27T01:58:50.317Z,1021.9
2019-06-27T01:59:51.722Z,1021.9
2019-06-27T02:00:53.195Z,1021.9
2019-06-27T02:01:54.597Z,1021.9
2019-06-27T02:02:56.003Z,1021.9
2019-06-27T02:03:57.533Z,1021.9
2019-06-27T02:04:58.940Z,1021.8
2019-06-27T02:06:00.340Z,1022.0
2019-06-27T02:07:01.921Z,1022.0
2019-06-27T02:08:03.205Z,1021.9
2019-06-27T02:09:04.614Z,1021.9
2019-06-27T02:10:07.191Z,1021.9
2019-06-27T02:11:08.590Z,1021.9
2019-06-27T02:12:09.990Z,1021.9
2019-06-27T02:13:11.503Z,1021.9
2019-06-27T02:14:12.903Z,1021.9
2019-06-27T02:15:14.303Z,1021.9
2019-06-27T02:16:15.827Z,1021.9
2019-06-27T02:17:17.234Z,1021.9
2019-06-27T02:18:18.629Z,1021.9
2019-06-27T02:19:20.151Z,1021.9
2019-06-27T02:20:21.552Z,1021.9
2019-06-27T02:21:23.029Z,1022.0
2019-06-27T02:22:24.432Z,1021.9
2019-06-27T02:23:25.908Z,1021.9
2019-06-27T02:24:27.309Z,1021.9
2019-06-27T02:25:28.837Z,1021.9
2019-06-27T02:26:30.240Z,1022.0
2019-06-27T02:27:31.713Z,1022.0
2019-06-27T02:28:33.090Z,1022.0
2019-06-27T02:29:34.562Z,1022.0
2019-06-27T02:30:35.958Z,1022.1
2019-06-27T02:31:37.439Z,1022.0
2019-06-27T02:32:38.843Z,1022.1
2019-06-27T02:33:40.242Z,1022.1
2019-06-27T02:34:41.757Z,1022.1
2019-06-27T02:35:43.165Z,1022.1
2019-06-27T02:36:44.556Z,1022.1
2019-06-27T02:37:46.129Z,1022.1
2019-06-27T02:38:47.529Z,1022.1
2019-06-27T02:39:48.953Z,1022.1
2019-06-27T02:40:50.363Z,1022.1
2019-06-27T02:41:51.841Z,1022.0
2019-06-27T02:42:53.251Z,1022.1
2019-06-27T02:43:54.634Z,1022.2
2019-06-27T02:44:56.057Z,1022.2
2019-06-27T02:45:57.471Z,1022.2
2019-06-27T02:46:58.867Z,1022.2
2019-06-27T02:48:00.377Z,1022.2
2019-06-27T02:49:01.778Z,1022.2
2019-06-27T02:50:03.187Z,1022.3
2019-06-27T02:51:04.637Z,1022.2
2019-06-27T02:52:06.031Z,1022.2
2019-06-27T02:53:07.435Z,1022.2
2019-06-27T02:54:08.954Z,1022.2
2019-06-27T02:55:10.360Z,1022.2
2019-06-27T02:56:11.800Z,1022.3
2019-06-27T02:57:13.209Z,1022.2
2019-06-27T02:58:29.694Z,1022.2
2019-06-27T02:59:15.969Z,1022.2
2019-06-27T03:00:17.373Z,1022.2
2019-06-27T03:01:18.794Z,1022.2
2019-06-27T03:02:20.198Z,1022.2
2019-06-27T03:03:21.600Z,1022.2
2019-06-27T03:04:23.018Z,1022.2
2019-06-27T03:05:24.420Z,1022.2
2019-06-27T03:06:25.814Z,1022.2
2019-06-27T03:07:27.238Z,1022.2
2019-06-27T03:08:28.643Z,1022.2
2019-06-27T03:09:30.118Z,1022.3
2019-06-27T03:10:31.523Z,1022.3
2019-06-27T03:11:33.032Z,1022.3
2019-06-27T03:12:34.449Z,1022.3
2019-06-27T03:13:35.861Z,1022.3
2019-06-27T03:14:37.319Z,1022.3
2019-06-27T03:15:38.726Z,1022.3
2019-06-27T03:16:40.127Z,1022.2
2019-06-27T03:17:41.643Z,1022.3
2019-06-27T03:18:43.065Z,1022.3
2019-06-27T03:19:44.539Z,1022.2
2019-06-27T03:20:45.927Z,1022.2
2019-06-27T03:21:47.413Z,1022.2
2019-06-27T03:22:48.820Z,1022.3
2019-06-27T03:23:50.230Z,1022.3
2019-06-27T03:24:51.734Z,1022.3
2019-06-27T03:25:53.130Z,1022.3
2019-06-27T03:26:54.533Z,1022.3
2019-06-27T03:27:56.046Z,1022.3
2019-06-27T03:28:57.471Z,1022.3
2019-06-27T03:29:58.849Z,1022.3
2019-06-27T03:31:00.303Z,1022.3
2019-06-27T03:32:01.714Z,1022.3
2019-06-27T03:33:03.165Z,1022.3
2019-06-27T03:34:04.570Z,1022.2
2019-06-27T03:35:05.971Z,1022.2
2019-06-27T03:36:07.490Z,1022.3
2019-06-27T03:37:08.835Z,1022.3
2019-06-27T03:38:10.240Z,1022.2
2019-06-27T03:39:11.717Z,1022.3
2019-06-27T03:40:13.169Z,1022.2
2019-06-27T03:41:14.691Z,1022.2
2019-06-27T03:42:16.105Z,1022.3
2019-06-27T03:43:17.595Z,1022.3
2019-06-27T03:44:19.009Z,1022.3
2019-06-27T03:45:20.438Z,1022.3
2019-06-27T03:46:21.874Z,1022.2
2019-06-27T03:47:23.315Z,1022.3
2019-06-27T03:48:24.720Z,1022.3
2019-06-27T03:49:26.441Z,1022.3
2019-06-27T03:50:27.935Z,1022.3
2019-06-27T03:51:29.401Z,1022.4
2019-06-27T03:52:30.813Z,1022.3
2019-06-27T03:53:32.218Z,1022.3
2019-06-27T03:54:33.706Z,1022.4
2019-06-27T03:55:35.158Z,1022.4
2019-06-27T03:56:36.563Z,1022.4
2019-06-27T03:57:38.044Z,1022.4
2019-06-27T03:58:39.547Z,1022.4
2019-06-27T03:59:40.977Z,1022.3
2019-06-27T04:00:42.453Z,1022.4
2019-06-27T04:01:43.854Z,1022.3
2019-06-27T04:02:45.263Z,1022.4
2019-06-27T04:03:46.783Z,1022.4
2019-06-27T04:04:48.179Z,1022.4
2019-06-27T04:05:49.660Z,1022.4
2019-06-27T04:06:51.065Z,1022.4
2019-06-27T04:07:52.534Z,1022.4
2019-06-27T04:08:53.940Z,1022.4
2019-06-27T04:09:55.353Z,1022.3
2019-06-27T04:10:56.861Z,1022.4
2019-06-27T04:11:58.291Z,1022.3
2019-06-27T04:12:59.699Z,1022.4
2019-06-27T04:14:01.221Z,1022.3
2019-06-27T04:15:02.579Z,1022.3
2019-06-27T04:16:04.051Z,1022.3
2019-06-27T04:17:05.469Z,1022.4
2019-06-27T04:18:06.942Z,1022.4
2019-06-27T04:19:08.351Z,1022.4
2019-06-27T04:20:09.839Z,1022.4
2019-06-27T04:21:11.225Z,1022.4
2019-06-27T04:22:17.123Z,1022.4
2019-06-27T04:23:14.068Z,1022.5
2019-06-27T04:24:15.504Z,1022.4
2019-06-27T04:25:17.945Z,1022.4
2019-06-27T04:26:19.347Z,1022.4
2019-06-27T04:27:20.750Z,1022.4
2019-06-27T04:28:22.271Z,1022.4
2019-06-27T04:29:33.395Z,1022.4
2019-06-27T04:30:25.035Z,1022.5
2019-06-27T04:31:26.483Z,1022.5
2019-06-27T04:32:27.888Z,1022.5
2019-06-27T04:33:29.301Z,1022.5
2019-06-27T04:34:30.802Z,1022.5
2019-06-27T04:35:32.236Z,1022.5
2019-06-27T04:36:33.715Z,1022.5
2019-06-27T04:37:35.120Z,1022.5
2019-06-27T04:38:36.565Z,1022.5
2019-06-27T04:39:37.975Z,1022.5
2019-06-27T04:40:39.382Z,1022.5
2019-06-27T04:41:41.092Z,1022.4
2019-06-27T04:42:42.512Z,1022.5
2019-06-27T04:43:43.915Z,1022.5
2019-06-27T04:44:45.417Z,1022.5
2019-06-27T04:45:46.827Z,1022.6
2019-06-27T04:46:48.227Z,1022.6
2019-06-27T04:47:49.730Z,1022.6
2019-06-27T04:48:51.148Z,1022.6
2019-06-27T04:49:52.552Z,1022.5
2019-06-27T04:50:54.060Z,1022.6
2019-06-27T04:51:55.469Z,1022.6
2019-06-27T04:52:56.941Z,1022.5
2019-06-27T04:53:58.340Z,1022.6
2019-06-27T04:55:03.015Z,1022.6
2019-06-27T04:56:01.202Z,1022.5
2019-06-27T04:57:02.704Z,1022.5
2019-06-27T04:58:04.100Z,1022.4
2019-06-27T04:59:05.627Z,1022.5
2019-06-27T05:00:07.046Z,1022.5
2019-06-27T05:01:08.465Z,1022.5
2019-06-27T05:02:09.906Z,1022.5
2019-06-27T05:03:11.347Z,1022.6
2019-06-27T05:04:12.754Z,1022.6
2019-06-27T05:05:14.223Z,1022.6
2019-06-27T05:06:15.657Z,1022.6
2019-06-27T05:07:17.141Z,1022.6
2019-06-27T05:08:18.547Z,1022.6
2019-06-27T05:09:19.989Z,1022.6
2019-06-27T05:10:21.392Z,1022.6
2019-06-27T05:11:22.882Z,1022.6
2019-06-27T05:12:24.283Z,1022.6
2019-06-27T05:13:25.750Z,1022.6
2019-06-27T05:14:27.154Z,1022.6
2019-06-27T05:15:28.635Z,1022.6
2019-06-27T05:16:30.040Z,1022.7
2019-06-27T05:17:31.507Z,1022.6
2019-06-27T05:18:32.925Z,1022.6
2019-06-27T05:19:34.390Z,1022.7
2019-06-27T05:20:35.827Z,1022.7
2019-06-27T05:21:37.273Z,1022.7
2019-06-27T05:22:38.677Z,1022.6
2019-06-27T05:23:40.152Z,1022.7
2019-06-27T05:24:41.562Z,1022.7
2019-06-27T05:25:44.058Z,1022.7
2019-06-27T05:26:45.467Z,1022.7
2019-06-27T05:27:46.938Z,1022.7
2019-06-27T05:28:48.352Z,1022.7
2019-06-27T05:29:49.834Z,1022.8
2019-06-27T05:30:51.753Z,1022.8
2019-06-27T05:31:52.702Z,1022.8
2019-06-27T05:32:54.118Z,1022.8
2019-06-27T05:33:55.583Z,1022.8
2019-06-27T05:34:56.996Z,1022.8
2019-06-27T05:35:58.464Z,1022.8
2019-06-27T05:36:59.872Z,1022.8
2019-06-27T05:38:01.347Z,1022.8
2019-06-27T05:39:02.755Z,1022.8
2019-06-27T05:40:04.233Z,1022.8
2019-06-27T05:41:05.634Z,1022.8
2019-06-27T05:42:07.106Z,1022.8
2019-06-27T05:43:08.512Z,1022.9
2019-06-27T05:44:09.992Z,1022.8
2019-06-27T05:45:11.395Z,1022.8
2019-06-27T05:46:12.825Z,1022.8
2019-06-27T05:47:14.308Z,1022.8
2019-06-27T05:48:15.710Z,1022.8
2019-06-27T05:49:17.119Z,1022.8
2019-06-27T05:50:18.629Z,1022.8
2019-06-27T05:51:20.118Z,1022.8
2019-06-27T05:52:21.480Z,1022.9
2019-06-27T05:53:22.953Z,1022.8
2019-06-27T05:54:24.360Z,1022.8
2019-06-27T05:55:25.766Z,1022.8
2019-06-27T05:56:27.301Z,1022.8
2019-06-27T05:57:28.679Z,1022.8
2019-06-27T05:58:30.133Z,1022.8
2019-06-27T05:59:31.596Z,1022.8
2019-06-27T06:00:32.999Z,1022.8
2019-06-27T06:01:34.474Z,1022.8
2019-06-27T06:02:35.885Z,1022.8
2019-06-27T06:03:37.355Z,1022.9
2019-06-27T06:04:38.752Z,1022.9
2019-06-27T06:05:40.173Z,1022.8
2019-06-27T06:06:41.676Z,1022.9
2019-06-27T06:07:43.089Z,1022.9
2019-06-27T06:08:44.508Z,1022.9
2019-06-27T06:09:46.004Z,1023.0
2019-06-27T06:10:47.412Z,1023.0
2019-06-27T06:11:48.878Z,1023.0
2019-06-27T06:12:50.286Z,1023.0
2019-06-27T06:13:51.763Z,1023.1
2019-06-27T06:14:53.169Z,1023.0
2019-06-27T06:15:54.581Z,1023.0
2019-06-27T06:16:56.119Z,1023.1
2019-06-27T06:17:57.501Z,1023.1
2019-06-27T06:18:58.963Z,1023.0
2019-06-27T06:20:00.402Z,1023.1
2019-06-27T06:21:01.881Z,1023.1
2019-06-27T06:22:03.379Z,1023.1
2019-06-27T06:23:04.841Z,1023.1
2019-06-27T06:24:06.371Z,1023.2
2019-06-27T06:25:07.791Z,1023.1
2019-06-27T06:26:09.253Z,1023.2
2019-06-27T06:27:10.727Z,1023.2
2019-06-27T06:28:12.239Z,1023.2
2019-06-27T06:29:13.646Z,1023.2
2019-06-27T06:30:15.135Z,1023.1
2019-06-27T06:31:16.548Z,1023.2
2019-06-27T06:32:17.966Z,1023.2
2019-06-27T06:33:19.437Z,1023.2
2019-06-27T06:34:20.852Z,1023.2
2019-06-27T06:35:22.272Z,1023.2
2019-06-27T06:36:23.775Z,1023.5
2019-06-27T06:37:25.186Z,1023.3
2019-06-27T06:38:26.589Z,1023.3
2019-06-27T06:39:28.190Z,1023.2
2019-06-27T06:40:29.600Z,1023.3
2019-06-27T06:41:31.021Z,1023.3
2019-06-27T06:42:32.567Z,1024.1
2019-06-27T06:43:33.917Z,1024.0
2019-06-27T06:44:35.330Z,1023.5
2019-06-27T06:45:36.833Z,1023.4
2019-06-27T06:46:38.234Z,1023.6
2019-06-27T06:47:39.686Z,1023.8
2019-06-27T06:48:41.152Z,1024.1
2019-06-27T06:49:42.560Z,1023.6
2019-06-27T06:50:43.966Z,1023.5
2019-06-27T06:51:45.501Z,1023.5
2019-06-27T06:52:46.897Z,1023.6
2019-06-27T06:53:48.351Z,1023.6
2019-06-27T06:54:49.762Z,1024.2
2019-06-27T06:55:51.167Z,1024.2
2019-06-27T06:56:52.684Z,1023.8
2019-06-27T06:57:54.091Z,1024.1
2019-06-27T06:58:55.501Z,1024.0
2019-06-27T06:59:56.996Z,1024.1
2019-06-27T07:01:02.035Z,1024.1
2019-06-27T07:01:59.778Z,1024.2
2019-06-27T07:03:01.219Z,1024.2
2019-06-27T07:04:02.631Z,1024.2
2019-06-27T07:05:04.122Z,1024.2
2019-06-27T07:06:05.546Z,1024.2
2019-06-27T07:07:07.047Z,1024.1
2019-06-27T07:08:08.419Z,1024.2
2019-06-27T07:09:09.879Z,1024.1
2019-06-27T07:10:11.271Z,1024.1
2019-06-27T07:11:12.743Z,1024.1
2019-06-27T07:12:14.150Z,1024.0
2019-06-27T07:13:15.621Z,1024.1
2019-06-27T07:14:17.025Z,1024.1
2019-06-27T07:15:18.501Z,1024.1
2019-06-27T07:16:19.912Z,1024.1
2019-06-27T07:17:21.320Z,1024.1
2019-06-27T07:18:22.822Z,1024.1
2019-06-27T07:19:24.239Z,1024.0
2019-06-27T07:20:25.692Z,1024.1
2019-06-27T07:21:27.142Z,1024.1
2019-06-27T07:22:28.554Z,1024.0
2019-06-27T07:23:29.965Z,1024.0
2019-06-27T07:24:31.470Z,1024.0
2019-06-27T07:25:32.877Z,1024.0
2019-06-27T07:26:34.296Z,1024.0
2019-06-27T07:27:35.791Z,1024.0
2019-06-27T07:28:37.210Z,1024.0
2019-06-27T07:29:38.667Z,1024.0
2019-06-27T07:30:40.082Z,1024.0
2019-06-27T07:31:41.492Z,1024.0
2019-06-27T07:32:42.987Z,1024.1
2019-06-27T07:33:44.405Z,1024.1
2019-06-27T07:34:45.820Z,1024.0
2019-06-27T07:35:47.319Z,1024.1
2019-06-27T07:36:48.746Z,1024.1
2019-06-27T07:37:50.155Z,1024.1
2019-06-27T07:38:51.638Z,1024.1
2019-06-27T07:39:53.086Z,1024.1
2019-06-27T07:40:54.519Z,1024.1
2019-06-27T07:41:55.952Z,1024.1
2019-06-27T07:42:57.369Z,1024.1
2019-06-27T07:43:58.804Z,1024.1
2019-06-27T07:45:00.285Z,1024.1
2019-06-27T07:46:01.705Z,1024.1
2019-06-27T07:47:03.118Z,1024.1
2019-06-27T07:48:04.596Z,1024.1
2019-06-27T07:49:06.013Z,1024.1
2019-06-27T07:50:07.483Z,1024.1
2019-06-27T07:51:08.930Z,1024.1
2019-06-27T07:52:10.348Z,1024.1
2019-06-27T07:53:11.804Z,1024.1
2019-06-27T07:54:13.244Z,1024.2
2019-06-27T07:55:14.664Z,1024.2
2019-06-27T07:56:16.153Z,1024.2
2019-06-27T07:57:17.544Z,1024.2
2019-06-27T07:58:19.017Z,1024.3
2019-06-27T07:59:20.453Z,1024.4
2019-06-27T08:00:21.995Z,1024.5
2019-06-27T08:01:34.538Z,1024.9
2019-06-27T08:02:24.827Z,1025.3
2019-06-27T08:03:26.241Z,1025.7
2019-06-27T08:04:27.986Z,1026.8
2019-06-27T08:05:29.178Z,1027.9
2019-06-27T08:06:30.711Z,1028.5
2019-06-27T08:07:32.076Z,1029.3
2019-06-27T08:08:33.539Z,1030.2
2019-06-27T08:09:34.950Z,1030.9
2019-06-27T08:10:36.386Z,1031.0
2019-06-27T08:11:37.833Z,1031.3
2019-06-27T08:12:42.113Z,1025.9
2019-06-27T08:13:40.739Z,1032.3
2019-06-27T08:14:42.158Z,1030.6
2019-06-27T08:15:43.599Z,1027.9
2019-06-27T08:16:45.039Z,1026.3
2019-06-27T08:17:46.499Z,1025.3
2019-06-27T08:18:48.086Z,1024.7
2019-06-27T08:19:49.568Z,1024.1
2019-06-27T08:20:50.968Z,1023.7
2019-06-27T08:21:52.432Z,1023.7
2019-06-27T08:22:53.915Z,1023.7
2019-06-27T08:23:55.419Z,1023.6
2019-06-27T08:24:56.931Z,1023.7
2019-06-27T08:25:58.296Z,1023.6
2019-06-27T08:26:59.722Z,1023.6
2019-06-27T08:28:01.186Z,1023.6
2019-06-27T08:29:02.602Z,1023.5
2019-06-27T08:30:07.895Z,1023.6
2019-06-27T08:31:05.445Z,1023.6
2019-06-27T08:32:06.855Z,1023.6
2019-06-27T08:33:08.287Z,1023.6
2019-06-27T08:34:09.699Z,1023.6
2019-06-27T08:35:11.108Z,1023.6
2019-06-27T08:36:12.609Z,1023.7
2019-06-27T08:37:14.015Z,1023.6
2019-06-27T08:38:15.425Z,1024.0
2019-06-27T08:39:16.927Z,1023.6
2019-06-27T08:40:18.329Z,1023.6
2019-06-27T08:41:19.807Z,1023.6
2019-06-27T08:42:21.209Z,1023.5
2019-06-27T08:43:22.684Z,1023.6
2019-06-27T08:44:24.094Z,1023.5
2019-06-27T08:45:25.574Z,1023.5
2019-06-27T08:46:29.699Z,1023.5
2019-06-27T08:47:28.447Z,1023.6
2019-06-27T08:48:29.849Z,1023.6
2019-06-27T08:49:31.325Z,1023.7
2019-06-27T08:50:32.730Z,1023.6
2019-06-27T08:51:34.207Z,1027.1
2019-06-27T08:52:35.708Z,1023.6
2019-06-27T08:53:37.067Z,1023.5
2019-06-27T08:54:38.531Z,1023.5
2019-06-27T08:55:39.957Z,1023.5
2019-06-27T08:56:41.357Z,1023.6
2019-06-27T08:57:42.853Z,1023.7
2019-06-27T08:58:44.265Z,1023.5
2019-06-27T08:59:45.731Z,1023.5
2019-06-27T09:00:47.140Z,1024.6
2019-06-27T09:01:48.628Z,1024.4
2019-06-27T09:02:50.018Z,1023.5
2019-06-27T09:03:51.427Z,1023.6
2019-06-27T09:04:52.943Z,1023.5
2019-06-27T09:05:54.341Z,1023.6
2019-06-27T09:06:55.749Z,1023.5
2019-06-27T09:07:57.251Z,1023.5
2019-06-27T09:08:58.659Z,1023.6
2019-06-27T09:10:00.165Z,1023.7
2019-06-27T09:11:01.703Z,1023.6
2019-06-27T09:12:03.121Z,1023.6
2019-06-27T09:13:04.523Z,1023.9
2019-06-27T09:14:07.060Z,1023.7
2019-06-27T09:15:08.468Z,1024.8
2019-06-27T09:16:09.914Z,1023.7
2019-06-27T09:17:11.320Z,1023.6
2019-06-27T09:18:12.784Z,1023.5
2019-06-27T09:19:14.195Z,1023.5
2019-06-27T09:20:15.668Z,1023.4
2019-06-27T09:21:17.071Z,1023.5
2019-06-27T09:22:18.553Z,1023.5
2019-06-27T09:23:19.954Z,1023.5
2019-06-27T09:24:21.359Z,1023.5
2019-06-27T09:25:22.873Z,1023.4
2019-06-27T09:26:24.279Z,1023.5
2019-06-27T09:27:25.685Z,1023.4
2019-06-27T09:28:27.193Z,1025.1
2019-06-27T09:29:28.596Z,1038.5
2019-06-27T09:30:29.999Z,1027.0
2019-06-27T09:31:31.622Z,1023.7
2019-06-27T09:32:33.067Z,1023.5
2019-06-27T09:33:34.465Z,1023.5
2019-06-27T09:34:35.934Z,1023.7
2019-06-27T09:35:37.340Z,1023.4
2019-06-27T09:36:38.750Z,1023.4
2019-06-27T09:37:40.151Z,1023.4
2019-06-27T09:38:41.558Z,1023.4
2019-06-27T09:39:44.160Z,1023.4
2019-06-27T09:40:45.563Z,1023.4
2019-06-27T09:41:46.979Z,1023.4
2019-06-27T09:42:50.677Z,1023.3
2019-06-27T09:43:52.072Z,1023.3
2019-06-27T09:44:53.466Z,1023.3
2019-06-27T09:45:54.877Z,1023.3
2019-06-27T09:46:56.284Z,1023.3
2019-06-27T09:47:57.721Z,1023.3
2019-06-27T09:48:59.390Z,1023.2
2019-06-27T09:50:00.791Z,1023.3
2019-06-27T09:51:02.274Z,1023.2
2019-06-27T09:52:03.885Z,1023.2
2019-06-27T09:53:05.289Z,1023.2
2019-06-27T09:54:06.698Z,1023.2
2019-06-27T09:55:08.123Z,1023.2
2019-06-27T09:56:09.522Z,1023.2
2019-06-27T09:57:10.935Z,1023.2
2019-06-27T09:58:12.442Z,1023.2
2019-06-27T09:59:13.850Z,1023.2
2019-06-27T10:00:15.252Z,1023.1
2019-06-27T10:01:16.773Z,1023.1
2019-06-27T10:02:18.171Z,1023.1
2019-06-27T10:03:19.587Z,1023.1
2019-06-27T10:04:22.018Z,1023.1
2019-06-27T10:05:23.411Z,1023.1
2019-06-27T10:06:26.263Z,1023.1
2019-06-27T10:07:26.329Z,1023.1
2019-06-27T10:08:27.738Z,1023.1
2019-06-27T10:09:29.158Z,1023.1
2019-06-27T10:10:30.653Z,1023.1
2019-06-27T10:11:32.068Z,1023.1
2019-06-27T10:12:42.150Z,1023.1
2019-06-27T10:13:34.898Z,1023.1
2019-06-27T10:14:36.410Z,1023.1
2019-06-27T10:15:37.818Z,1023.2
2019-06-27T10:16:39.298Z,1023.1
2019-06-27T10:17:40.704Z,1023.1
2019-06-27T10:18:42.178Z,1023.1
2019-06-27T10:19:43.613Z,1023.1
2019-06-27T10:20:45.058Z,1023.1
2019-06-27T10:21:46.463Z,1023.1
2019-06-27T10:22:47.938Z,1023.1
2019-06-27T10:23:49.348Z,1023.1
2019-06-27T10:24:50.817Z,1023.1
2019-06-27T10:25:52.224Z,1023.1
2019-06-27T10:26:53.695Z,1023.1
2019-06-27T10:27:55.101Z,1023.1
2019-06-27T10:28:56.599Z,1023.0
2019-06-27T10:29:57.992Z,1023.0
2019-06-27T10:30:59.471Z,1023.1
2019-06-27T10:32:00.880Z,1023.1
2019-06-27T10:33:02.336Z,1023.1
2019-06-27T10:34:03.751Z,1023.1
2019-06-27T10:35:05.225Z,1023.1
2019-06-27T10:36:06.629Z,1023.4
2019-06-27T10:37:08.103Z,1023.1
2019-06-27T10:38:09.515Z,1023.0
2019-06-27T10:39:10.916Z,1023.1
2019-06-27T10:40:12.436Z,1023.0
2019-06-27T10:41:13.846Z,1023.0
2019-06-27T10:42:15.250Z,1023.0
2019-06-27T10:43:16.749Z,1023.0
2019-06-27T10:44:18.191Z,1023.0
2019-06-27T10:45:19.635Z,1023.0
2019-06-27T10:46:21.030Z,1023.0
2019-06-27T10:47:22.508Z,1022.9
2019-06-27T10:48:23.914Z,1022.9
2019-06-27T10:49:25.333Z,1023.0
2019-06-27T10:50:26.830Z,1023.0
2019-06-27T10:51:28.235Z,1022.9
2019-06-27T10:52:29.644Z,1022.9
2019-06-27T10:53:31.163Z,1022.9
2019-06-27T10:54:32.570Z,1022.9
2019-06-27T10:55:34.034Z,1022.9
2019-06-27T10:56:39.630Z,1022.9
2019-06-27T10:57:36.907Z,1022.8
2019-06-27T10:58:38.405Z,1022.8
2019-06-27T10:59:39.812Z,1022.8
2019-06-27T11:00:41.651Z,1022.8
2019-06-27T11:01:43.106Z,1022.9
2019-06-27T11:02:44.558Z,1022.9
2019-06-27T11:03:46.170Z,1022.9
2019-06-27T11:04:47.580Z,1022.8
2019-06-27T11:05:48.985Z,1022.8
2019-06-27T11:06:50.574Z,1022.8
2019-06-27T11:07:51.959Z,1022.8
2019-06-27T11:08:53.370Z,1022.8
2019-06-27T11:09:54.811Z,1022.8
2019-06-27T11:10:56.269Z,1022.8
2019-06-27T11:11:58.108Z,1022.9
2019-06-27T11:12:59.719Z,1022.8
2019-06-27T11:14:00.880Z,1022.8
2019-06-27T11:15:02.434Z,1022.9
2019-06-27T11:16:03.850Z,1022.8
2019-06-27T11:17:05.245Z,1022.8
2019-06-27T11:18:06.748Z,1022.8
2019-06-27T11:19:08.148Z,1022.8
2019-06-27T11:20:09.673Z,1022.7
2019-06-27T11:21:13.802Z,1022.8
2019-06-27T11:22:12.650Z,1022.8
2019-06-27T11:23:14.155Z,1022.8
2019-06-27T11:24:15.579Z,1022.7
2019-06-27T11:25:16.984Z,1022.7
2019-06-27T11:26:18.486Z,1022.7
2019-06-27T11:27:19.894Z,1022.7
2019-06-27T11:28:21.292Z,1022.7
2019-06-27T11:29:22.802Z,1022.7
2019-06-27T11:30:24.206Z,1022.6
2019-06-27T11:31:25.883Z,1022.7
2019-06-27T11:32:27.284Z,1022.6
2019-06-27T11:33:32.991Z,1022.6
2019-06-27T11:34:30.141Z,1022.6
2019-06-27T11:35:31.731Z,1022.6
2019-06-27T11:36:33.187Z,1022.6
2019-06-27T11:37:34.596Z,1022.6
2019-06-27T11:38:35.999Z,1022.6
2019-06-27T11:39:37.671Z,1022.6
2019-06-27T11:40:39.082Z,1022.6
2019-06-27T11:41:40.641Z,1022.6
2019-06-27T11:42:42.011Z,1022.5
2019-06-27T11:43:43.507Z,1022.5
2019-06-27T11:44:44.929Z,1022.5
2019-06-27T11:45:46.356Z,1022.5
2019-06-27T11:46:47.761Z,1022.5
2019-06-27T11:47:49.307Z,1022.5
2019-06-27T11:48:50.725Z,1022.4
2019-06-27T11:49:52.224Z,1022.4
2019-06-27T11:50:53.850Z,1022.5
2019-06-27T11:51:55.308Z,1022.5
2019-06-27T11:52:56.713Z,1022.5
2019-06-27T11:53:58.189Z,1022.5
2019-06-27T11:54:59.595Z,1022.4
2019-06-27T11:56:01.069Z,1022.4
2019-06-27T11:57:02.611Z,1022.4
2019-06-27T11:58:04.023Z,1022.4
2019-06-27T11:59:05.566Z,1022.4
2019-06-27T12:00:07.154Z,1022.5
2019-06-27T12:01:09.251Z,1022.4
2019-06-27T12:02:10.661Z,1022.4
2019-06-27T12:03:12.179Z,1022.4
2019-06-27T12:04:13.583Z,1022.3
2019-06-27T12:05:15.046Z,1022.3
2019-06-27T12:06:16.498Z,1022.3
2019-06-27T12:07:17.902Z,1022.3
2019-06-27T12:08:19.385Z,1022.3
2019-06-27T12:09:20.837Z,1022.3
2019-06-27T12:10:22.260Z,1022.3
2019-06-27T12:11:23.668Z,1022.3
2019-06-27T12:12:25.140Z,1022.2
2019-06-27T12:13:26.558Z,1022.2
2019-06-27T12:14:28.041Z,1022.2
2019-06-27T12:15:29.443Z,1022.2
2019-06-27T12:16:30.906Z,1022.2
2019-06-27T12:17:32.340Z,1022.2
2019-06-27T12:18:33.745Z,1022.1
2019-06-27T12:19:35.152Z,1022.2
2019-06-27T12:20:36.661Z,1022.1
2019-06-27T12:21:38.073Z,1022.2
2019-06-27T12:22:39.542Z,1022.2
2019-06-27T12:23:40.946Z,1022.1
2019-06-27T12:24:42.505Z,1022.2
2019-06-27T12:25:43.952Z,1022.2
2019-06-27T12:26:45.428Z,1022.2
2019-06-27T12:27:46.837Z,1022.2
2019-06-27T12:28:48.306Z,1022.1
2019-06-27T12:29:49.719Z,1022.2
2019-06-27T12:30:51.196Z,1022.1
2019-06-27T12:31:52.574Z,1022.2
2019-06-27T12:32:54.076Z,1022.1
2019-06-27T12:34:06.450Z,1022.1
2019-06-27T12:34:56.846Z,1022.1
2019-06-27T12:35:58.292Z,1022.0
2019-06-27T12:36:59.692Z,1022.0
2019-06-27T12:38:01.154Z,1022.1
2019-06-27T12:39:02.555Z,1022.0
2019-06-27T12:40:04.032Z,1022.0
2019-06-27T12:41:05.437Z,1022.0
2019-06-27T12:42:06.912Z,1022.0
2019-06-27T12:43:08.398Z,1022.0
2019-06-27T12:44:09.792Z,1022.0
2019-06-27T12:45:11.198Z,1022.0
2019-06-27T12:46:12.601Z,1022.0
2019-06-27T12:47:14.115Z,1021.9